Terminal Aerodrome Forecast
Issued by NWS Memphis, TN

Home | Current Version | Previous Version | Text Only | Print | Product List | Glossary On
Versions: 1 2 3 4 5 6 7 8 9 10 11 12 13
000
FTUS44 KMEG 170500
TAFJBR
TAF
KJBR 170530Z 1706/1806 04006KT P6SM SCT030 OVC050
      TEMPO 1710/1714 4SM BR BKN025
     FM171400 14004KT P6SM BKN035
     FM171900 21004KT P6SM BKN035
     FM180000 VRB03KT P6SM VCSH SCT025 BKN060=

USA.gov is the U.S. government's official web portal to all federal, state and local government web resources and services.